Terminal Aerodrome Forecast
Issued by NWS

Home | Current Version | Previous Version | Graphics & Text | Print | Product List | Glossary On
Versions: 1 2 3 4 5 6 7 8 9 10 11 12 13 14 15
000
FTUS43 KFGF 140537
TAFBJI
TAF
KBJI 140537Z 1406/1506 21004KT P6SM SCT250
     FM141100 18008KT P6SM BKN100
     FM141600 19008KT 2SM -SN OVC015
     FM141700 21008KT 1SM -SN OVC015
     FM141900 24009KT 1SM -SN OVC015
     FM142100 29010KT P6SM BKN015
     FM150000 32009KT P6SM BKN015=

USA.gov is the U.S. government's official web portal to all federal, state and local government web resources and services.